Louisville, KY

12:18 AM EDT on September 16, 2014 (GMT -0400)
Louisville, KY | Change Station
CLOSE
Current Station
Personal Weather Station
Location: Louisville, KY
Elevation: 492 ft
Nearby Weather Stations

Elev 492 ft 38.25 °N, 85.76 °W | Updated 29 minutes ago

Overcast
Overcast
65.4 °F
Feels Like 65.4 °F
N
0.7
Wind Variable Wind from South
Gusts 4.5 mph

Today
High -- | Low -- °F
--% Chance of Precip.
Yesterday
High -- | Low -- °F
Precip. -- in
7:25 AM 7:49 PM
Waning Gibbous, 49% visible
Pressure 30.06 in
Visibility 10.0 miles
Clouds Few 4200 ft
Overcast 6000 ft
Dew Point 58 °F
Humidity 78%
Rainfall -999.00 in
Snow Depth Not available.
UV 0 out of 12
Pollen 5.40 out of 12
Ozone Good
PM2.5 Moderate
Flu Activity Not available.
METAR KSDF 160356Z 15005KT 10SM -RA FEW042 OVC060 19/15 A3007 RMK AO2 RAE37B56 SLP179 P0000 T01890150

More Conditions Fewer Conditions

Pressure 30.06 in
Visibility 10.0 miles
Clouds Few 4200 ft
Overcast 6000 ft
Dew Point 58 °F
Humidity 78%
Rainfall -999.00 in
Snow Depth Not available.
UV 0 out of 12
Pollen 5.40 out of 12
Ozone Good
PM2.5 Moderate
Flu Activity Not available.
METAR KSDF 160356Z 15005KT 10SM -RA FEW042 OVC060 19/15 A3007 RMK AO2 RAE37B56 SLP179 P0000 T01890150

More Conditions Fewer Conditions

10-Day Weather Forecast

Almanac

Astronomy

Sep. 16, 2014 Rise Set
Actual Time 7:25 AM EDT 7:49 PM EDT
Civil Twilight 6:59 AM EDT 8:15 PM EDT
Nautical Twilight 6:28 AM EDT 8:47 PM EDT
Astronomical Twilight 5:56 AM EDT 9:18 PM EDT
Moon 12:38 AM EDT 3:09 PM EDT
Length of Visible Light 13h 16m
Length of Day
12h 23m
Tomorrow will be 2m 26s shorter.
Waning Gibbous, 49% of the Moon is Illuminated
Today
Waning Gibbous
Sep 24
New
Oct 1
First Quarter
Oct 8
Full
Oct 15
Last Quarter

Yesterday's Extremes

State Highs State Lows

Community

WunderPhotos

Upload Photos

1,753,699 photos uploaded!

Nearby

Air Quality

  Air Quality AQ Index Pollutant
Yesterday Good
PM10
Yesterday Good
OZONE
Current Moderate
PM2.5
Current Good
OZONE
Monday Moderate
PM2.5
Monday Moderate
OZONE
Tuesday Good
PM2.5
Tuesday Good
OZONE
Wednesday Moderate
PM2.5
Wednesday Good
OZONE
Thursday Moderate
PM2.5
Thursday Good
OZONE

Snow Depth

Station Depth Elevation
No new snow has been reported.

Earthquake Activity

City Distance Mag. Time & Date
No recent earthquake activity has been reported nearby.
Minimum magnitude displayed is 2.5.

Coastal Water Temperatures

Place Temperature
No Stations Reporting

Nearby Weather Stations